createdAt,value
2019-03-26T00:00:58.082Z,5.4
2019-03-26T00:06:20.778Z,4.6
2019-03-26T00:11:43.428Z,5.1
2019-03-26T00:17:06.160Z,4.4
2019-03-26T00:22:28.956Z,4.5
2019-03-26T00:27:51.691Z,5.1
2019-03-26T00:33:14.331Z,4.4
2019-03-26T00:38:37.084Z,4.5
2019-03-26T00:43:59.759Z,4.8
2019-03-26T00:49:22.461Z,4.6
2019-03-26T00:54:45.094Z,4.6
2019-03-26T01:00:07.815Z,4.6
2019-03-26T01:05:30.518Z,4.4
2019-03-26T01:10:53.516Z,4.6
2019-03-26T01:16:16.522Z,4
2019-03-26T01:21:39.401Z,3.8
2019-03-26T01:27:02.051Z,4.1
2019-03-26T01:32:24.828Z,4.2
2019-03-26T01:37:47.506Z,4
2019-03-26T01:43:10.253Z,4.4
2019-03-26T01:48:34.769Z,3.7
2019-03-26T01:53:57.458Z,3.2
2019-03-26T01:59:20.410Z,3.5
2019-03-26T02:04:43.131Z,4.2
2019-03-26T02:10:05.784Z,3.9
2019-03-26T02:15:28.745Z,3.6
2019-03-26T02:20:52.136Z,3.7
2019-03-26T02:26:14.754Z,3
2019-03-26T02:31:37.431Z,3.2
2019-03-26T02:37:00.104Z,2.9
2019-03-26T02:42:22.876Z,3.3
2019-03-26T02:47:45.572Z,3.4
2019-03-26T02:53:08.794Z,3.4
2019-03-26T02:58:30.876Z,3.4
2019-03-26T03:03:53.537Z,3
2019-03-26T03:09:16.205Z,3.5
2019-03-26T03:14:38.871Z,3.1
2019-03-26T03:20:01.605Z,4.1
2019-03-26T03:25:24.283Z,3.3
2019-03-26T03:30:47.007Z,3.2
2019-03-26T03:36:09.647Z,3.7
2019-03-26T03:41:32.547Z,3.8
2019-03-26T03:46:55.191Z,4.3
2019-03-26T03:52:17.897Z,3.7
2019-03-26T03:57:41.242Z,3.2
2019-03-26T04:03:03.914Z,3.6
2019-03-26T04:08:26.539Z,3.9
2019-03-26T04:13:49.179Z,3.3
2019-03-26T04:19:11.849Z,3.5
2019-03-26T04:24:34.583Z,3.1
2019-03-26T04:29:57.243Z,3.2
2019-03-26T04:35:19.930Z,3.8
2019-03-26T04:40:42.603Z,3.4
2019-03-26T04:46:06.445Z,3.5
2019-03-26T04:51:29.163Z,3.8
2019-03-26T04:56:52.864Z,3.3
2019-03-26T05:02:15.493Z,3.5
2019-03-26T05:07:38.124Z,3.7
2019-03-26T05:13:00.845Z,3.6
2019-03-26T05:18:23.638Z,3.2
2019-03-26T05:23:48.293Z,3.3
2019-03-26T05:29:11.068Z,3.3
2019-03-26T05:34:33.835Z,3.5
2019-03-26T05:39:56.729Z,3.4
2019-03-26T05:45:19.400Z,3.7
2019-03-26T05:50:42.160Z,4.2
2019-03-26T05:56:04.840Z,3.5
2019-03-26T06:01:27.547Z,3.9
2019-03-26T06:06:50.245Z,3.3
2019-03-26T06:12:12.973Z,3.6
2019-03-26T06:17:35.774Z,3.3
2019-03-26T06:22:58.455Z,3.9
2019-03-26T06:28:21.127Z,3.5
2019-03-26T06:33:43.886Z,3.1
2019-03-26T06:39:06.606Z,3.8
2019-03-26T06:44:29.324Z,3.1
2019-03-26T06:49:51.975Z,3
2019-03-26T06:55:14.618Z,3.6
2019-03-26T07:00:37.307Z,3.7
2019-03-26T07:06:00.224Z,3.4
2019-03-26T07:11:23.048Z,3.2
2019-03-26T07:16:45.698Z,3
2019-03-26T07:22:08.341Z,3.4
2019-03-26T07:27:30.962Z,3.4
2019-03-26T07:32:53.694Z,3.2
2019-03-26T07:38:18.197Z,2.9
2019-03-26T07:43:40.873Z,2.5
2019-03-26T07:49:03.539Z,3
2019-03-26T07:54:26.226Z,2.4
2019-03-26T07:59:48.988Z,2.6
2019-03-26T08:05:12.310Z,2.7
2019-03-26T08:10:35.019Z,3
2019-03-26T08:15:57.737Z,2.7
2019-03-26T08:21:20.401Z,2.6
2019-03-26T08:26:43.139Z,3.1
2019-03-26T08:32:05.796Z,3.5
2019-03-26T08:37:28.601Z,3.2
2019-03-26T08:42:51.302Z,3.1
2019-03-26T08:48:14.938Z,2.9
2019-03-26T08:53:37.706Z,2.6
2019-03-26T08:59:00.399Z,2.6
2019-03-26T09:04:23.069Z,3
2019-03-26T09:09:45.839Z,3.4
2019-03-26T09:15:08.748Z,3.4
2019-03-26T09:20:31.662Z,3
2019-03-26T09:25:54.374Z,2.9
2019-03-26T09:31:17.127Z,2.6
2019-03-26T09:36:39.846Z,2.9
2019-03-26T09:42:02.500Z,2.7
2019-03-26T09:47:25.280Z,3.2
2019-03-26T09:52:48.808Z,3.5
2019-03-26T09:58:11.550Z,3.3
2019-03-26T10:03:34.270Z,3.4
2019-03-26T10:08:57.068Z,3.3
2019-03-26T10:14:19.727Z,2.8
2019-03-26T10:19:42.451Z,2.9
2019-03-26T10:25:05.260Z,3
2019-03-26T10:30:27.896Z,3.1
2019-03-26T10:35:50.592Z,3.7
2019-03-26T10:41:13.279Z,3
2019-03-26T10:46:35.915Z,3.4
2019-03-26T10:51:58.608Z,3.6
2019-03-26T10:57:22.241Z,3
2019-03-26T11:02:44.886Z,3.2
2019-03-26T11:08:07.567Z,3
2019-03-26T11:13:30.648Z,3.3
2019-03-26T11:18:53.440Z,3.4
2019-03-26T11:24:16.247Z,4.1
2019-03-26T11:29:39.180Z,3.4
2019-03-26T11:35:01.920Z,3.2
2019-03-26T11:40:24.624Z,3
2019-03-26T11:45:48.114Z,3.4
2019-03-26T11:51:10.905Z,4
2019-03-26T11:56:33.817Z,3.4
2019-03-26T12:01:56.517Z,3.5
2019-03-26T12:07:19.140Z,3.4
2019-03-26T12:12:42.140Z,3.5
2019-03-26T12:18:06.213Z,3.7
2019-03-26T12:23:28.977Z,3.2
2019-03-26T12:28:51.698Z,4.2
2019-03-26T12:34:14.454Z,3.9
2019-03-26T12:39:37.242Z,4.1
2019-03-26T12:44:59.903Z,4.6
2019-03-26T12:50:22.578Z,4.1
2019-03-26T12:55:45.261Z,3.2
2019-03-26T13:01:07.928Z,4.3
2019-03-26T13:06:30.653Z,4.2
2019-03-26T13:11:54.702Z,3.5
2019-03-26T13:17:17.365Z,3.7
2019-03-26T13:22:40.161Z,3.7
2019-03-26T13:28:02.871Z,3.7
2019-03-26T13:33:25.512Z,3.3
2019-03-26T13:38:48.487Z,3.7
2019-03-26T13:44:11.285Z,3.8
2019-03-26T13:49:34.569Z,4.1
2019-03-26T13:54:57.210Z,3.7
2019-03-26T14:00:19.911Z,3.8
2019-03-26T14:05:42.580Z,3.8
2019-03-26T14:11:05.228Z,3.8
2019-03-26T14:16:27.899Z,3.8
2019-03-26T14:21:50.696Z,4.3
2019-03-26T14:27:15.505Z,3.7
2019-03-26T14:32:38.166Z,3.7
2019-03-26T14:38:01.095Z,3.7
2019-03-26T14:43:23.742Z,3.9
2019-03-26T14:48:46.376Z,3.8
2019-03-26T14:54:09.007Z,4
2019-03-26T14:59:31.682Z,3.5
2019-03-26T15:04:54.402Z,4
2019-03-26T15:10:17.077Z,3.8
2019-03-26T15:15:39.865Z,3.5
2019-03-26T15:21:02.658Z,3.4
2019-03-26T15:26:25.392Z,3.6
2019-03-26T15:31:48.317Z,3.7
2019-03-26T15:37:10.951Z,4.2
2019-03-26T15:42:33.676Z,3.8
2019-03-26T15:47:56.932Z,4
2019-03-26T15:53:19.591Z,4.1
2019-03-26T15:58:42.234Z,3.5
2019-03-26T16:04:04.876Z,3.7
2019-03-26T16:09:27.556Z,3.4
2019-03-26T16:14:50.225Z,3.4
2019-03-26T16:20:12.873Z,3.5
2019-03-26T16:25:35.896Z,3.7
2019-03-26T16:30:58.542Z,4
2019-03-26T16:36:21.245Z,4.6
2019-03-26T16:41:49.122Z,4.1
2019-03-26T16:47:09.556Z,4.1
2019-03-26T16:52:32.265Z,4.1
2019-03-26T16:57:54.890Z,4.9
2019-03-26T17:03:30.317Z,4.9
2019-03-26T17:08:42.173Z,5
2019-03-26T17:14:05.896Z,4.6
2019-03-26T17:19:28.544Z,5.2
2019-03-26T17:24:51.167Z,5.1
2019-03-26T17:30:13.879Z,4.7
2019-03-26T17:35:37.774Z,4.7
2019-03-26T17:41:00.482Z,4.3
2019-03-26T17:46:23.327Z,4.1
2019-03-26T17:51:46.087Z,4.1
2019-03-26T17:57:08.847Z,3.8
2019-03-26T18:02:31.585Z,3.5
2019-03-26T18:07:54.310Z,3.6
2019-03-26T18:13:17.090Z,4.2
2019-03-26T18:18:40.071Z,3.9
2019-03-26T18:24:02.876Z,4.4
2019-03-26T18:29:25.815Z,5.5
2019-03-26T18:34:48.458Z,5
2019-03-26T18:40:11.232Z,4.9
2019-03-26T18:45:33.990Z,5.5
2019-03-26T18:50:56.772Z,6.3
2019-03-26T18:56:20.056Z,6.6
2019-03-26T19:01:42.746Z,6.2
2019-03-26T19:07:05.468Z,5.9
2019-03-26T19:12:29.603Z,6
2019-03-26T19:17:52.349Z,6.3
2019-03-26T19:23:14.993Z,6.8
2019-03-26T19:28:37.675Z,7.7
2019-03-26T19:34:02.277Z,7.6
2019-03-26T19:39:25.377Z,8.1
2019-03-26T19:44:48.166Z,10
2019-03-26T19:50:10.229Z,10.1
2019-03-26T19:55:36.094Z,11.1
2019-03-26T20:00:58.757Z,11.6
2019-03-26T20:06:22.398Z,11.8
2019-03-26T20:11:45.017Z,11.7
2019-03-26T20:17:07.839Z,12.1
2019-03-26T20:22:31.005Z,10.8
2019-03-26T20:27:53.776Z,10.4
2019-03-26T20:33:16.481Z,10.6
2019-03-26T20:38:39.198Z,12
2019-03-26T20:44:02.858Z,12.3
2019-03-26T20:49:25.621Z,12.6
2019-03-26T20:54:48.485Z,12.9
2019-03-26T21:00:11.163Z,12
2019-03-26T21:05:34.177Z,12.2
2019-03-26T21:10:56.988Z,11.2
2019-03-26T21:16:19.657Z,9.9
2019-03-26T21:21:41.624Z,8.3
2019-03-26T21:27:04.282Z,7.6
2019-03-26T21:32:27.200Z,6.5
2019-03-26T21:37:50.113Z,6.3
2019-03-26T21:43:12.851Z,6.2
2019-03-26T21:48:35.533Z,6.5
2019-03-26T21:53:58.199Z,6.2
2019-03-26T21:59:20.955Z,6.7
2019-03-26T22:04:43.597Z,6.6
2019-03-26T22:10:06.254Z,6.6
2019-03-26T22:15:28.983Z,6.1
2019-03-26T22:20:52.404Z,6.1
2019-03-26T22:26:15.163Z,6.5
2019-03-26T22:31:38.774Z,7.3
2019-03-26T22:37:01.561Z,6.7
2019-03-26T22:42:24.218Z,7
2019-03-26T22:47:46.923Z,6
2019-03-26T22:53:10.475Z,6.2
2019-03-26T22:58:33.798Z,6.5
2019-03-26T23:03:56.486Z,5.6
2019-03-26T23:09:19.112Z,5.8
2019-03-26T23:14:45.231Z,5.9
2019-03-26T23:20:05.471Z,5.7
2019-03-26T23:25:28.927Z,5.6
2019-03-26T23:30:51.669Z,6.3
2019-03-26T23:36:14.335Z,6.2
2019-03-26T23:41:39.669Z,6.1
2019-03-26T23:47:01.732Z,6.3
2019-03-26T23:52:24.409Z,6.5
2019-03-26T23:57:47.768Z,6.5
